createdAt,value
2018-04-19T00:00:48.054Z,13.62
2018-04-19T00:01:48.041Z,13.49
2018-04-19T00:02:48.040Z,13.49
2018-04-19T00:03:48.042Z,13.54
2018-04-19T00:04:48.035Z,13.38
2018-04-19T00:05:48.031Z,13.44
2018-04-19T00:06:48.021Z,13.49
2018-04-19T00:07:48.026Z,13.40
2018-04-19T00:08:48.025Z,13.44
2018-04-19T00:09:48.019Z,13.47
2018-04-19T00:10:48.011Z,13.43
2018-04-19T00:11:48.054Z,13.47
2018-04-19T00:12:48.003Z,13.30
2018-04-19T00:13:47.997Z,13.40
2018-04-19T00:14:47.997Z,13.32
2018-04-19T00:15:47.983Z,13.22
2018-04-19T00:16:47.988Z,12.97
2018-04-19T00:17:47.991Z,13.03
2018-04-19T00:18:47.975Z,13.00
2018-04-19T00:19:47.982Z,13.12
2018-04-19T00:20:47.971Z,13.02
2018-04-19T00:21:47.960Z,13.02
2018-04-19T00:22:47.980Z,13.03
2018-04-19T00:23:47.956Z,13.29
2018-04-19T00:24:47.961Z,13.22
2018-04-19T00:25:47.953Z,13.18
2018-04-19T00:26:47.948Z,13.22
2018-04-19T00:27:47.944Z,13.18
2018-04-19T00:28:47.937Z,13.22
2018-04-19T00:29:47.934Z,13.17
2018-04-19T00:30:47.934Z,13.15
2018-04-19T00:31:47.923Z,13.02
2018-04-19T00:32:47.913Z,13.04
2018-04-19T00:33:47.917Z,12.95
2018-04-19T00:34:47.922Z,12.99
2018-04-19T00:35:47.924Z,12.92
2018-04-19T00:36:47.905Z,13.04
2018-04-19T00:37:47.905Z,12.96
2018-04-19T00:38:47.906Z,13.17
2018-04-19T00:39:47.901Z,13.17
2018-04-19T00:40:47.886Z,13.30
2018-04-19T00:41:47.886Z,13.24
2018-04-19T00:42:47.882Z,13.20
2018-04-19T00:43:47.880Z,13.11
2018-04-19T00:44:47.882Z,13.07
2018-04-19T00:45:47.875Z,13.09
2018-04-19T00:46:47.863Z,13.04
2018-04-19T00:47:47.861Z,12.95
2018-04-19T00:48:47.863Z,12.95
2018-04-19T00:49:47.854Z,13.06
2018-04-19T00:50:47.853Z,12.88
2018-04-19T00:51:47.848Z,12.92
2018-04-19T00:52:47.838Z,12.88
2018-04-19T00:53:47.840Z,12.95
2018-04-19T00:54:47.838Z,12.97
2018-04-19T00:55:47.824Z,13.00
2018-04-19T00:56:47.825Z,12.95
2018-04-19T00:57:47.829Z,12.84
2018-04-19T00:58:47.819Z,12.82
2018-04-19T00:59:47.825Z,12.71
2018-04-19T01:00:47.816Z,12.70
2018-04-19T01:01:47.816Z,12.63
2018-04-19T01:02:47.794Z,12.57
2018-04-19T01:03:47.786Z,12.56
2018-04-19T01:04:47.796Z,12.37
2018-04-19T01:05:47.795Z,12.42
2018-04-19T01:06:47.791Z,12.41
2018-04-19T01:07:47.779Z,12.42
2018-04-19T01:08:47.782Z,12.52
2018-04-19T01:09:47.775Z,12.37
2018-04-19T01:10:47.767Z,12.41
2018-04-19T01:11:47.763Z,12.57
2018-04-19T01:12:47.760Z,12.56
2018-04-19T01:13:47.755Z,12.51
2018-04-19T01:14:47.745Z,12.39
2018-04-19T01:15:47.749Z,12.45
2018-04-19T01:16:47.746Z,12.52
2018-04-19T01:17:47.753Z,12.52
2018-04-19T01:18:47.730Z,12.52
2018-04-19T01:19:47.728Z,12.56
2018-04-19T01:20:47.722Z,12.54
2018-04-19T01:21:47.730Z,12.57
2018-04-19T01:22:47.711Z,12.60
2018-04-19T01:23:47.707Z,12.54
2018-04-19T01:24:47.719Z,12.66
2018-04-19T01:25:47.711Z,12.52
2018-04-19T01:26:47.696Z,12.57
2018-04-19T01:27:47.697Z,12.38
2018-04-19T01:28:47.695Z,12.37
2018-04-19T01:29:47.685Z,12.42
2018-04-19T02:01:50.592Z,11.94
2018-04-19T02:02:50.556Z,11.94
2018-04-19T02:04:43.455Z,11.94
2018-04-19T02:05:43.431Z,11.89
2018-04-19T02:06:43.437Z,12.04
2018-04-19T02:07:43.414Z,11.94
2018-04-19T02:08:43.412Z,12.08
2018-04-19T02:09:43.388Z,12.01
2018-04-19T02:10:43.389Z,11.99
2018-04-19T02:11:43.375Z,12.05
2018-04-19T02:12:43.373Z,11.90
2018-04-19T02:13:43.371Z,11.94
2018-04-19T02:14:43.352Z,11.89
2018-04-19T02:15:43.357Z,11.96
2018-04-19T02:16:43.348Z,11.94
2018-04-19T02:17:43.337Z,11.94
2018-04-19T02:18:43.335Z,11.82
2018-04-19T02:19:43.331Z,11.75
2018-04-19T02:20:43.321Z,11.78
2018-04-19T02:21:43.328Z,11.75
2018-04-19T02:22:43.309Z,11.74
2018-04-19T02:23:43.306Z,11.77
2018-04-19T02:24:43.301Z,11.78
2018-04-19T02:25:43.299Z,11.78
2018-04-19T02:26:43.293Z,11.77
2018-04-19T02:27:43.288Z,11.72
2018-04-19T02:28:43.280Z,11.78
2018-04-19T02:29:43.277Z,11.78
2018-04-19T02:30:43.272Z,11.78
2018-04-19T02:31:43.279Z,11.80
2018-04-19T02:32:43.271Z,11.82
2018-04-19T02:33:43.259Z,11.89
2018-04-19T02:34:43.253Z,11.75
2018-04-19T02:35:43.253Z,11.77
2018-04-19T02:36:43.250Z,11.82
2018-04-19T02:37:43.237Z,11.93
2018-04-19T02:38:43.235Z,11.83
2018-04-19T02:39:43.226Z,11.93
2018-04-19T02:40:43.226Z,11.96
2018-04-19T02:41:43.211Z,11.94
2018-04-19T02:42:43.215Z,11.72
2018-04-19T02:43:43.239Z,11.80
2018-04-19T02:44:43.204Z,11.83
2018-04-19T02:45:43.200Z,11.78
2018-04-19T02:46:43.191Z,11.77
2018-04-19T02:47:43.193Z,11.82
2018-04-19T02:48:43.181Z,11.71
2018-04-19T02:49:43.187Z,11.74
2018-04-19T02:50:43.179Z,11.83
2018-04-19T02:51:43.171Z,11.80
2018-04-19T02:52:43.188Z,11.93
2018-04-19T02:53:43.167Z,11.94
2018-04-19T02:54:43.191Z,11.90
2018-04-19T02:55:43.155Z,11.89
2018-04-19T02:56:43.143Z,11.72
2018-04-19T02:57:43.146Z,11.85
2018-04-19T02:58:43.129Z,11.77
2018-04-19T02:59:43.140Z,11.68
2018-04-19T03:00:43.141Z,11.65
2018-04-19T03:01:43.129Z,11.74
2018-04-19T03:02:43.124Z,11.68
2018-04-19T03:03:43.118Z,11.71
2018-04-19T03:04:43.117Z,11.56
2018-04-19T03:05:43.096Z,11.62
2018-04-19T03:06:43.099Z,11.61
2018-04-19T03:07:43.120Z,11.57
2018-04-19T03:08:43.114Z,11.57
2018-04-19T03:09:43.086Z,11.53
2018-04-19T03:10:43.084Z,11.59
2018-04-19T03:11:43.093Z,11.49
2018-04-19T03:12:43.075Z,11.53
2018-04-19T03:13:43.089Z,11.59
2018-04-19T03:14:43.052Z,11.50
2018-04-19T03:15:43.055Z,11.54
2018-04-19T03:16:43.074Z,11.62
2018-04-19T03:17:43.065Z,11.53
2018-04-19T03:18:43.048Z,11.49
2018-04-19T03:19:43.041Z,11.36
2018-04-19T03:20:43.030Z,11.44
2018-04-19T03:21:43.028Z,11.47
2018-04-19T03:22:43.024Z,11.46
2018-04-19T03:23:43.024Z,11.44
2018-04-19T03:24:43.004Z,11.27
2018-04-19T03:25:43.009Z,11.20
2018-04-19T03:26:43.001Z,11.21
2018-04-19T03:27:43.017Z,11.14
2018-04-19T03:28:42.989Z,11.19
2018-04-19T03:29:42.996Z,11.07
2018-04-19T03:30:42.984Z,11.14
2018-04-19T03:31:42.984Z,11.10
2018-04-19T03:32:42.977Z,11.19
2018-04-19T03:33:42.968Z,11.17
2018-04-19T03:34:42.966Z,11.20
2018-04-19T03:35:42.963Z,11.17
2018-04-19T03:36:42.955Z,11.25
2018-04-19T03:37:42.979Z,11.27
2018-04-19T03:38:42.942Z,11.11
2018-04-19T03:39:42.940Z,11.17
2018-04-19T03:40:42.962Z,11.10
2018-04-19T03:41:42.936Z,11.09
2018-04-19T03:42:42.928Z,11.03
2018-04-19T03:43:42.937Z,10.92
2018-04-19T03:44:42.924Z,10.88
2018-04-19T03:45:42.916Z,10.77
2018-04-19T03:46:42.909Z,10.78
2018-04-19T03:47:42.905Z,10.76
2018-04-19T03:48:42.898Z,10.58
2018-04-19T03:49:42.890Z,10.52
2018-04-19T03:50:42.906Z,10.60
2018-04-19T03:51:42.880Z,10.53
2018-04-19T03:52:42.874Z,10.46
2018-04-19T03:53:42.887Z,10.46
2018-04-19T03:54:42.864Z,10.46
2018-04-19T03:55:42.858Z,10.36
2018-04-19T03:56:42.854Z,10.37
2018-04-19T03:57:42.882Z,10.33
2018-04-19T03:58:42.848Z,10.40
2018-04-19T03:59:42.847Z,10.32
2018-04-19T04:00:42.832Z,10.36
2018-04-19T04:01:42.830Z,10.30
2018-04-19T04:02:42.831Z,10.22
2018-04-19T04:03:42.831Z,10.33
2018-04-19T04:04:42.815Z,10.21
2018-04-19T04:05:42.807Z,10.21
2018-04-19T04:06:42.811Z,10.14
2018-04-19T04:07:42.814Z,10.09
2018-04-19T04:08:42.787Z,10.04
2018-04-19T04:09:42.792Z,10.03
2018-04-19T04:10:42.793Z,10.06
2018-04-19T04:11:42.781Z,10.04
2018-04-19T04:12:42.787Z,9.94
2018-04-19T04:13:42.764Z,9.97
2018-04-19T04:14:42.772Z,10.03
2018-04-19T04:15:42.745Z,9.89
2018-04-19T04:16:42.746Z,9.86
2018-04-19T04:17:42.740Z,9.85
2018-04-19T04:18:42.755Z,9.81
2018-04-19T04:19:42.732Z,9.81
2018-04-19T04:20:42.726Z,9.88
2018-04-19T04:21:42.718Z,9.75
2018-04-19T04:22:42.720Z,9.79
2018-04-19T04:23:42.730Z,9.70
2018-04-19T04:24:42.744Z,9.73
2018-04-19T04:25:42.699Z,9.58
2018-04-19T04:26:42.687Z,9.60
2018-04-19T04:27:42.690Z,9.63
2018-04-19T04:28:42.682Z,9.56
2018-04-19T04:29:42.675Z,9.70
2018-04-19T04:30:42.679Z,9.64
2018-04-19T04:31:42.667Z,9.71
2018-04-19T04:32:42.655Z,9.70
2018-04-19T04:33:42.652Z,9.79
2018-04-19T04:34:42.671Z,9.81
2018-04-19T04:35:42.643Z,9.86
2018-04-19T04:36:42.642Z,9.93
2018-04-19T04:37:42.634Z,10.00
2018-04-19T04:38:42.628Z,9.99
2018-04-19T04:39:42.633Z,9.91
2018-04-19T04:40:42.633Z,9.99
2018-04-19T04:41:42.608Z,9.99
2018-04-19T04:42:42.606Z,9.97
2018-04-19T04:43:42.596Z,10.01
2018-04-19T04:44:42.594Z,9.99
2018-04-19T04:45:42.592Z,10.00
2018-04-19T04:46:42.584Z,10.01
2018-04-19T04:47:42.576Z,9.96
2018-04-19T04:48:42.590Z,9.94
2018-04-19T04:49:42.563Z,10.03
2018-04-19T04:50:42.556Z,10.03
2018-04-19T04:51:42.550Z,10.06
2018-04-19T04:52:42.540Z,10.03
2018-04-19T04:53:42.556Z,9.97
2018-04-19T04:54:42.560Z,9.99
2018-04-19T04:55:42.543Z,9.99
2018-04-19T04:56:42.516Z,9.96
2018-04-19T04:57:42.516Z,10.09
2018-04-19T04:58:42.519Z,10.09
2018-04-19T04:59:42.506Z,10.10
2018-04-19T05:00:42.500Z,10.09
2018-04-19T05:01:42.498Z,10.07
2018-04-19T05:02:42.495Z,10.15
2018-04-19T05:03:42.489Z,10.18
2018-04-19T05:04:42.475Z,10.12
2018-04-19T05:05:42.475Z,10.19
2018-04-19T05:06:42.472Z,10.26
2018-04-19T05:07:42.467Z,10.33
2018-04-19T05:08:42.460Z,10.37
2018-04-19T05:09:42.457Z,10.37
2018-04-19T05:10:42.447Z,10.53
2018-04-19T05:11:42.448Z,10.78
2018-04-19T05:12:42.447Z,10.81
2018-04-19T05:13:42.431Z,10.80
2018-04-19T05:14:42.432Z,10.78
2018-04-19T05:15:42.437Z,10.81
2018-04-19T05:16:42.412Z,10.88
2018-04-19T05:17:42.414Z,10.98
2018-04-19T05:18:42.477Z,10.99
2018-04-19T05:19:42.393Z,11.06
2018-04-19T05:20:42.399Z,11.09
2018-04-19T05:21:42.407Z,11.16
2018-04-19T05:22:42.392Z,11.13
2018-04-19T05:23:42.387Z,11.17
2018-04-19T05:24:42.371Z,11.25
2018-04-19T05:25:42.373Z,11.31
2018-04-19T05:26:42.374Z,11.46
2018-04-19T05:27:42.385Z,11.43
2018-04-19T05:28:42.389Z,11.47
2018-04-19T05:29:42.345Z,11.41
2018-04-19T05:30:42.349Z,11.43
2018-04-19T05:31:42.378Z,11.39
2018-04-19T05:32:42.338Z,11.44
2018-04-19T05:33:42.347Z,11.47
2018-04-19T05:34:42.331Z,11.56
2018-04-19T05:35:42.328Z,11.46
2018-04-19T05:36:42.320Z,11.52
2018-04-19T05:37:42.317Z,11.62
2018-04-19T05:38:42.314Z,11.65
2018-04-19T05:39:42.311Z,11.72
2018-04-19T05:40:42.308Z,11.78
2018-04-19T05:41:42.298Z,11.94
2018-04-19T05:42:42.302Z,11.90
2018-04-19T05:43:42.293Z,11.90
2018-04-19T05:44:42.306Z,11.99
2018-04-19T05:45:42.287Z,11.99
2018-04-19T05:46:42.276Z,12.15
2018-04-19T05:47:42.276Z,12.13
2018-04-19T05:48:42.271Z,12.27
2018-04-19T05:49:42.273Z,12.29
2018-04-19T05:50:42.261Z,12.27
2018-04-19T05:51:42.267Z,12.30
2018-04-19T05:52:42.257Z,12.41
2018-04-19T05:53:42.244Z,12.41
2018-04-19T05:54:42.247Z,12.56
2018-04-19T05:55:42.251Z,12.51
2018-04-19T05:56:42.253Z,12.59
2018-04-19T05:57:42.231Z,12.74
2018-04-19T05:58:42.248Z,12.78
2018-04-19T05:59:42.233Z,12.82
2018-04-19T06:00:42.233Z,12.82
2018-04-19T06:01:42.228Z,12.88
2018-04-19T06:02:42.224Z,12.84
2018-04-19T06:03:42.219Z,13.00
2018-04-19T06:04:42.213Z,13.07
2018-04-19T06:05:42.213Z,12.96
2018-04-19T06:06:42.209Z,12.88
2018-04-19T06:07:42.202Z,13.04
2018-04-19T06:08:42.231Z,13.24
2018-04-19T06:09:42.194Z,13.25
2018-04-19T06:10:42.200Z,13.27
2018-04-19T06:11:42.190Z,13.29
2018-04-19T06:12:42.189Z,13.36
2018-04-19T06:13:42.179Z,13.30
2018-04-19T06:14:42.189Z,13.22
2018-04-19T06:15:42.176Z,13.41
2018-04-19T06:16:42.173Z,13.51
2018-04-19T06:17:42.178Z,13.51
2018-04-19T06:18:42.172Z,13.61
2018-04-19T06:19:42.166Z,13.71
2018-04-19T06:20:42.166Z,13.80
2018-04-19T06:21:42.181Z,13.91
2018-04-19T06:22:42.160Z,14.04
2018-04-19T06:23:42.156Z,14.20
2018-04-19T06:24:42.153Z,14.13
2018-04-19T06:25:42.146Z,14.16
2018-04-19T06:26:42.146Z,14.24
2018-04-19T06:27:42.136Z,14.49
2018-04-19T06:28:42.140Z,14.53
2018-04-19T06:29:42.160Z,14.56
2018-04-19T06:30:42.142Z,14.64
2018-04-19T06:31:42.137Z,14.71
2018-04-19T06:32:42.137Z,14.57
2018-04-19T06:33:42.132Z,14.71
2018-04-19T06:34:42.122Z,14.71
2018-04-19T06:35:42.125Z,14.80
2018-04-19T06:36:42.132Z,14.87
2018-04-19T06:37:42.119Z,15.06
2018-04-19T06:38:42.116Z,15.11
2018-04-19T06:39:42.116Z,15.01
2018-04-19T06:40:42.139Z,15.03
2018-04-19T06:41:42.110Z,15.21
2018-04-19T06:42:42.104Z,15.15
2018-04-19T06:43:42.098Z,15.26
2018-04-19T06:44:42.106Z,15.43
2018-04-19T06:45:42.099Z,15.66
2018-04-19T06:46:42.094Z,15.79
2018-04-19T06:47:42.099Z,15.74
2018-04-19T06:48:42.085Z,15.49
2018-04-19T06:49:42.094Z,15.51
2018-04-19T06:50:42.096Z,15.60
2018-04-19T06:51:42.091Z,15.68
2018-04-19T06:52:42.089Z,15.63
2018-04-19T06:53:42.089Z,15.76
2018-04-19T06:54:42.079Z,15.70
2018-04-19T06:55:42.088Z,16.01
2018-04-19T06:56:42.093Z,16.44
2018-04-19T06:57:42.082Z,16.49
2018-04-19T06:58:42.073Z,16.55
2018-04-19T06:59:42.080Z,16.93
2018-04-19T07:00:42.094Z,17.17
2018-04-19T07:01:42.070Z,17.46
2018-04-19T07:02:42.070Z,17.28
2018-04-19T07:03:42.075Z,17.22
2018-04-19T07:04:42.071Z,17.51
2018-04-19T07:05:42.081Z,17.51
2018-04-19T07:06:42.064Z,17.78
2018-04-19T07:07:42.058Z,18.25
2018-04-19T07:08:42.063Z,17.99
2018-04-19T07:09:42.063Z,18.12
2018-04-19T07:10:42.062Z,18.47
2018-04-19T07:11:42.061Z,18.83
2018-04-19T07:12:42.047Z,18.87
2018-04-19T07:13:42.052Z,18.99
2018-04-19T07:14:42.059Z,18.25
2018-04-19T07:15:42.054Z,18.28
2018-04-19T07:16:42.056Z,18.42
2018-04-19T07:17:42.053Z,18.47
2018-04-19T07:18:42.054Z,18.87
2018-04-19T07:19:42.054Z,19.28
2018-04-19T07:20:42.052Z,19.31
2018-04-19T07:21:42.052Z,19.87
2018-04-19T07:22:42.046Z,20.65
2018-04-19T07:23:42.046Z,21.29
2018-04-19T07:24:42.060Z,21.99
2018-04-19T07:25:42.057Z,21.60
2018-04-19T07:26:42.053Z,21.46
2018-04-19T07:27:42.051Z,21.44
2018-04-19T07:28:42.054Z,20.83
2018-04-19T07:29:42.052Z,20.42
2018-04-19T07:30:42.060Z,20.51
2018-04-19T07:31:42.062Z,20.47
2018-04-19T07:32:42.067Z,21.32
2018-04-19T07:33:42.073Z,20.77
2018-04-19T07:34:42.077Z,21.79
2018-04-19T07:35:42.095Z,22.49
2018-04-19T07:36:42.091Z,22.90
2018-04-19T07:37:42.103Z,22.04
2018-04-19T07:38:42.105Z,22.23
2018-04-19T07:39:42.122Z,22.67
2018-04-19T07:40:42.124Z,22.44
2018-04-19T07:41:42.136Z,23.23
2018-04-19T07:42:42.169Z,23.64
2018-04-19T07:43:42.162Z,23.22
2018-04-19T07:44:42.170Z,23.24
2018-04-19T07:45:42.171Z,23.02
2018-04-19T07:46:42.179Z,23.38
2018-04-19T07:47:42.199Z,24.02
2018-04-19T07:48:42.217Z,24.32
2018-04-19T07:49:42.224Z,24.53
2018-04-19T07:50:42.228Z,25.06
2018-04-19T07:51:42.257Z,24.39
2018-04-19T07:52:42.259Z,24.12
2018-04-19T07:53:42.270Z,22.72
2018-04-19T07:54:42.297Z,23.12
2018-04-19T07:55:42.303Z,23.58
2018-04-19T07:56:42.320Z,24.04
2018-04-19T07:57:42.329Z,24.34
2018-04-19T07:58:42.356Z,24.13
2018-04-19T07:59:42.357Z,24.26
2018-04-19T08:00:42.378Z,24.31
2018-04-19T08:01:42.389Z,25.07
2018-04-19T08:02:42.405Z,25.91
2018-04-19T08:03:42.409Z,24.08
2018-04-19T08:04:42.429Z,24.83
2018-04-19T08:05:42.436Z,25.19
2018-04-19T08:06:42.457Z,25.06
2018-04-19T08:07:42.467Z,25.59
2018-04-19T08:08:42.486Z,26.87
2018-04-19T08:09:42.501Z,27.38
2018-04-19T08:10:42.512Z,27.85
2018-04-19T08:11:42.526Z,27.73
2018-04-19T08:12:42.561Z,28.16
2018-04-19T08:13:42.564Z,28.70
2018-04-19T08:14:42.577Z,27.86
2018-04-19T08:15:42.595Z,26.62
2018-04-19T08:16:42.620Z,25.65
2018-04-19T08:17:42.633Z,25.35
2018-04-19T08:18:42.640Z,25.20
2018-04-19T08:19:42.661Z,24.98
2018-04-19T08:20:42.683Z,25.22
2018-04-19T08:21:42.690Z,25.53
2018-04-19T08:22:42.701Z,26.47
2018-04-19T08:23:42.716Z,27.58
2018-04-19T08:24:42.746Z,28.47
2018-04-19T08:25:42.769Z,29.34
2018-04-19T08:26:42.769Z,29.93
2018-04-19T08:27:42.796Z,29.47
2018-04-19T08:28:42.811Z,28.16
2018-04-19T08:29:42.841Z,26.73
2018-04-19T08:30:42.854Z,24.83
2018-04-19T08:31:42.857Z,24.69
2018-04-19T08:32:42.874Z,25.31
2018-04-19T08:33:42.908Z,25.82
2018-04-19T08:34:42.904Z,25.56
2018-04-19T08:35:42.925Z,25.42
2018-04-19T08:36:42.938Z,26.12
2018-04-19T08:37:42.957Z,26.12
2018-04-19T08:38:42.968Z,26.12
2018-04-19T08:39:42.990Z,26.92
2018-04-19T08:40:43.003Z,26.74
2018-04-19T08:41:43.019Z,26.80
2018-04-19T08:42:43.042Z,26.05
2018-04-19T08:43:43.054Z,26.91
2018-04-19T08:44:43.084Z,26.21
2018-04-19T08:45:43.101Z,27.04
2018-04-19T08:46:43.117Z,26.24
2018-04-19T08:47:43.122Z,26.44
2018-04-19T08:48:43.160Z,26.42
2018-04-19T08:49:43.172Z,26.46
2018-04-19T08:50:43.285Z,27.57
2018-04-19T08:51:43.198Z,27.92
2018-04-19T08:52:43.209Z,28.73
2018-04-19T08:53:43.254Z,29.45
2018-04-19T08:54:43.258Z,29.72
2018-04-19T08:55:43.274Z,29.07
2018-04-19T08:56:43.283Z,27.89
2018-04-19T08:57:43.317Z,28.19
2018-04-19T08:58:43.340Z,28.43
2018-04-19T08:59:43.342Z,28.70
2018-04-19T09:00:43.364Z,27.79
2018-04-19T09:01:43.375Z,28.78
2018-04-19T09:02:43.413Z,30.14
2018-04-19T09:03:43.429Z,29.79
2018-04-19T09:04:43.449Z,29.79
2018-04-19T09:05:43.450Z,30.27
2018-04-19T09:06:43.480Z,30.07
2018-04-19T09:07:43.527Z,29.59
2018-04-19T09:08:43.514Z,30.81
2018-04-19T09:09:43.529Z,31.30
2018-04-19T09:10:43.554Z,31.55
2018-04-19T09:11:43.629Z,31.99
2018-04-19T09:15:15.436Z,28.85
2018-04-19T09:16:15.414Z,28.31
2018-04-19T09:18:08.368Z,30.36
2018-04-19T09:19:08.369Z,30.69
2018-04-19T09:21:01.433Z,28.72
2018-04-19T09:22:01.421Z,28.91
2018-04-19T09:23:54.476Z,28.56
2018-04-19T09:24:54.483Z,29.06
2018-04-19T09:26:47.554Z,28.21
2018-04-19T09:27:47.472Z,27.41
2018-04-19T09:29:40.560Z,27.06
2018-04-19T09:30:40.557Z,27.57
2018-04-19T09:32:33.548Z,28.21
2018-04-19T09:33:33.530Z,27.74
2018-04-19T09:35:26.664Z,28.13
2018-04-19T09:36:26.643Z,29.22
2018-04-19T09:38:19.700Z,28.10
2018-04-19T09:39:19.691Z,29.10
2018-04-19T09:41:12.738Z,29.87
2018-04-19T09:42:12.742Z,29.89
2018-04-19T09:44:05.778Z,29.23
2018-04-19T09:45:05.779Z,29.19
2018-04-19T09:46:58.775Z,30.59
2018-04-19T09:47:58.764Z,31.21
2018-04-19T09:49:51.782Z,32.07
2018-04-19T09:50:51.790Z,31.21
2018-04-19T09:52:44.794Z,33.10
2018-04-19T09:53:44.792Z,32.58
2018-04-19T09:55:37.811Z,31.95
2018-04-19T09:56:37.792Z,32.29
2018-04-19T09:58:30.955Z,31.76
2018-04-19T09:59:30.946Z,31.84
2018-04-19T10:01:23.993Z,31.12
2018-04-19T10:02:24.008Z,31.58
2018-04-19T10:04:17.018Z,29.77
2018-04-19T10:05:17.032Z,29.23
2018-04-19T10:07:10.058Z,30.14
2018-04-19T10:08:10.047Z,30.38
2018-04-19T10:10:03.025Z,29.87
2018-04-19T10:11:03.042Z,30.52
2018-04-19T10:12:56.044Z,30.62
2018-04-19T10:13:56.029Z,30.61
2018-04-19T10:15:49.013Z,30.75
2018-04-19T10:16:49.010Z,31.64
2018-04-19T10:18:42.058Z,30.02
2018-04-19T10:19:42.059Z,29.87
2018-04-19T10:21:35.038Z,29.94
2018-04-19T10:22:35.021Z,29.57
2018-04-19T10:24:28.129Z,29.41
2018-04-19T10:25:28.057Z,28.62
2018-04-19T10:27:21.106Z,28.29
2018-04-19T10:28:21.078Z,27.86
2018-04-19T10:29:21.104Z,28.35
2018-04-19T10:30:21.115Z,28.84
2018-04-19T10:31:21.132Z,29.18
2018-04-19T10:32:21.163Z,29.16
2018-04-19T10:33:21.183Z,28.53
2018-04-19T10:34:21.209Z,28.43
2018-04-19T10:35:21.229Z,28.33
2018-04-19T10:36:21.253Z,28.77
2018-04-19T10:37:21.265Z,28.81
2018-04-19T10:38:21.290Z,29.11
2018-04-19T10:39:21.306Z,28.77
2018-04-19T10:40:21.334Z,29.20
2018-04-19T10:41:21.340Z,30.11
2018-04-19T10:42:21.364Z,30.54
2018-04-19T10:43:21.386Z,31.57
2018-04-19T10:44:21.405Z,32.02
2018-04-19T10:45:21.437Z,31.13
2018-04-19T10:46:21.439Z,31.75
2018-04-19T10:47:21.464Z,32.29
2018-04-19T10:48:21.478Z,31.55
2018-04-19T10:49:21.507Z,31.50
2018-04-19T10:50:21.517Z,31.73
2018-04-19T10:51:21.543Z,31.09
2018-04-19T10:52:21.568Z,30.83
2018-04-19T10:53:21.646Z,31.20
2018-04-19T10:54:21.608Z,32.27
2018-04-19T10:55:21.625Z,31.60
2018-04-19T10:56:21.651Z,31.40
2018-04-19T10:57:21.657Z,30.75
2018-04-19T10:58:21.681Z,30.65
2018-04-19T10:59:21.713Z,29.89
2018-04-19T11:00:21.742Z,30.21
2018-04-19T11:01:21.792Z,31.13
2018-04-19T11:02:21.766Z,31.15
2018-04-19T11:03:21.780Z,32.05
2018-04-19T11:04:21.810Z,32.86
2018-04-19T11:05:21.835Z,31.99
2018-04-19T11:06:21.849Z,31.54
2018-04-19T11:07:21.880Z,31.15
2018-04-19T11:08:21.892Z,31.82
2018-04-19T11:09:21.914Z,31.67
2018-04-19T11:10:21.938Z,32.06
2018-04-19T11:11:21.962Z,31.49
2018-04-19T11:12:21.981Z,31.88
2018-04-19T11:13:21.998Z,32.05
2018-04-19T11:14:22.024Z,32.67
2018-04-19T11:15:22.043Z,32.05
2018-04-19T11:16:22.046Z,31.79
2018-04-19T11:17:22.076Z,31.84
2018-04-19T11:18:22.100Z,31.80
2018-04-19T11:19:22.120Z,31.62
2018-04-19T11:20:22.196Z,31.54
2018-04-19T11:21:22.151Z,31.65
2018-04-19T11:22:22.191Z,30.98
2018-04-19T11:23:22.315Z,29.81
2018-04-19T11:24:22.224Z,28.66
2018-04-19T11:25:22.236Z,28.60
2018-04-19T11:26:22.265Z,28.73
2018-04-19T11:27:22.277Z,28.69
2018-04-19T11:28:22.296Z,29.07
2018-04-19T11:29:22.322Z,29.37
2018-04-19T11:30:22.343Z,29.63
2018-04-19T11:31:22.369Z,30.03
2018-04-19T11:32:22.382Z,30.19
2018-04-19T11:33:22.396Z,30.18
2018-04-19T11:34:22.420Z,28.85
2018-04-19T11:35:22.439Z,29.55
2018-04-19T11:36:22.459Z,29.19
2018-04-19T11:37:22.481Z,28.44
2018-04-19T11:38:22.512Z,27.82
2018-04-19T11:39:22.511Z,27.42
2018-04-19T11:40:22.532Z,27.91
2018-04-19T11:41:22.556Z,28.93
2018-04-19T11:42:22.577Z,29.97
2018-04-19T11:43:22.607Z,30.07
2018-04-19T11:44:22.619Z,29.74
2018-04-19T11:45:22.651Z,29.35
2018-04-19T11:46:22.652Z,28.56
2018-04-19T11:47:22.687Z,29.35
2018-04-19T11:48:22.697Z,29.34
2018-04-19T11:49:22.726Z,28.82
2018-04-19T11:50:22.736Z,28.44
2018-04-19T11:51:22.749Z,29.34
2018-04-19T11:52:22.782Z,29.89
2018-04-19T11:53:22.795Z,30.56
2018-04-19T11:54:22.824Z,30.59
2018-04-19T11:55:22.831Z,31.01
2018-04-19T11:56:22.853Z,31.31
2018-04-19T11:57:22.868Z,31.61
2018-04-19T11:58:22.891Z,29.87
2018-04-19T11:59:22.908Z,29.38
2018-04-19T12:00:22.926Z,28.84
2018-04-19T12:01:22.947Z,28.88
2018-04-19T12:02:22.978Z,27.92
2018-04-19T12:03:22.989Z,28.59
2018-04-19T12:04:23.002Z,29.60
2018-04-19T12:05:23.020Z,30.11
2018-04-19T12:06:23.049Z,29.77
2018-04-19T12:07:23.055Z,29.56
2018-04-19T12:08:23.085Z,30.21
2018-04-19T12:09:23.107Z,29.84
2018-04-19T12:10:23.125Z,29.35
2018-04-19T12:11:23.133Z,29.93
2018-04-19T12:12:23.159Z,30.43
2018-04-19T12:13:23.176Z,30.98
2018-04-19T12:14:23.196Z,29.97
2018-04-19T12:15:23.211Z,30.87
2018-04-19T12:16:23.234Z,30.74
2018-04-19T12:17:23.251Z,30.16
2018-04-19T12:18:23.274Z,30.90
2018-04-19T12:19:23.301Z,30.69
2018-04-19T12:20:23.306Z,29.50
2018-04-19T12:21:23.324Z,28.07
2018-04-19T12:22:23.337Z,26.52
2018-04-19T12:23:23.367Z,25.64
2018-04-19T12:24:23.384Z,25.91
2018-04-19T12:25:23.401Z,26.15
2018-04-19T12:26:23.418Z,25.38
2018-04-19T12:27:23.443Z,25.09
2018-04-19T12:28:23.452Z,25.39
2018-04-19T12:29:23.480Z,25.13
2018-04-19T12:30:23.485Z,25.30
2018-04-19T12:31:23.496Z,25.42
2018-04-19T12:32:23.526Z,25.62
2018-04-19T12:33:23.533Z,25.72
2018-04-19T12:34:23.542Z,25.77
2018-04-19T12:35:23.557Z,25.71
2018-04-19T12:36:23.574Z,25.43
2018-04-19T12:37:23.585Z,24.88
2018-04-19T12:38:23.591Z,25.05
2018-04-19T12:39:23.603Z,25.37
2018-04-19T12:40:23.676Z,25.20
2018-04-19T12:41:23.675Z,24.87
2018-04-19T12:42:23.630Z,24.88
2018-04-19T12:43:23.651Z,24.75
2018-04-19T12:44:23.663Z,24.75
2018-04-19T12:45:23.646Z,24.63
2018-04-19T12:46:23.663Z,24.49
2018-04-19T12:47:23.700Z,24.29
2018-04-19T12:48:23.696Z,24.29
2018-04-19T12:49:23.681Z,24.31
2018-04-19T12:50:23.700Z,24.59
2018-04-19T12:51:23.697Z,24.87
2018-04-19T12:52:23.712Z,24.73
2018-04-19T12:53:23.713Z,24.75
2018-04-19T12:54:23.717Z,24.53
2018-04-19T12:55:23.796Z,24.44
2018-04-19T12:56:23.732Z,24.47
2018-04-19T12:57:23.750Z,24.47
2018-04-19T12:58:23.744Z,24.42
2018-04-19T12:59:23.748Z,24.31
2018-04-19T13:00:23.754Z,24.31
2018-04-19T13:01:23.766Z,24.29
2018-04-19T13:02:23.772Z,24.42
2018-04-19T13:03:23.783Z,24.47
2018-04-19T13:04:23.780Z,24.32
2018-04-19T13:05:23.786Z,24.31
2018-04-19T13:06:23.777Z,24.24
2018-04-19T13:07:23.800Z,23.97
2018-04-19T13:08:23.786Z,23.79
2018-04-19T13:09:23.805Z,23.85
2018-04-19T13:10:23.799Z,23.94
2018-04-19T13:11:23.805Z,23.85
2018-04-19T13:12:23.806Z,23.82
2018-04-19T13:13:23.813Z,23.75
2018-04-19T13:14:23.819Z,23.67
2018-04-19T13:15:23.822Z,23.60
2018-04-19T13:16:23.833Z,23.67
2018-04-19T13:17:23.850Z,23.60
2018-04-19T13:18:23.836Z,23.71
2018-04-19T13:19:23.829Z,23.62
2018-04-19T13:20:23.836Z,23.76
2018-04-19T13:21:23.839Z,23.85
2018-04-19T13:22:23.835Z,23.95
2018-04-19T13:23:23.857Z,23.95
2018-04-19T13:24:23.850Z,23.90
2018-04-19T13:25:23.859Z,24.05
2018-04-19T13:26:23.859Z,24.04
2018-04-19T13:27:23.860Z,24.19
2018-04-19T13:28:23.870Z,24.19
2018-04-19T13:29:23.861Z,24.04
2018-04-19T13:30:23.869Z,24.10
2018-04-19T13:31:23.880Z,24.20
2018-04-19T13:32:23.879Z,24.07
2018-04-19T13:33:23.890Z,24.20
2018-04-19T13:34:23.879Z,24.27
2018-04-19T13:35:23.900Z,24.26
2018-04-19T13:36:23.888Z,24.12
2018-04-19T13:37:23.900Z,23.95
2018-04-19T13:38:23.913Z,23.90
2018-04-19T13:39:23.906Z,23.77
2018-04-19T13:40:23.905Z,23.80
2018-04-19T13:41:23.897Z,23.85
2018-04-19T13:42:23.910Z,23.85
2018-04-19T13:43:23.920Z,24.12
2018-04-19T13:44:23.915Z,23.94
2018-04-19T13:45:23.941Z,24.10
2018-04-19T13:46:23.926Z,24.32
2018-04-19T13:47:23.924Z,24.29
2018-04-19T13:48:23.925Z,24.29
2018-04-19T13:49:23.956Z,24.37
2018-04-19T13:50:23.928Z,24.42